Nearby METAR Reports

 

KCOS - Colorado Springs, Colorado, USA
Distance from station: S 6mi, 9km
Updated: 02/16/2019 12:54pm
Mostly cloudy
Mostly cloudy
 Wind from WNW
Wind: WNW 13 mph , 20 km/h, Gust: 31 mph , 50 km/h
Temperature: 46°F , 8°C
Wind Chill: 40°F , 4°C
Dew Point: 7°F , -14°C
Humidity: 20%
Barometer: 29.38 inHg , 994.9 hPa
Clouds: Mostly cloudy
Visibility: 10 miles , 16 km
Cloud details: Partly cloudy 5000 ft
Mostly cloudy 11000 ft
2019/02/16 19:54 KCOS 161954Z 30011G27KT 10SM SCT050 BKN110 08/M14 A2938 RMK AO2 PK WND 25038/1902 SLP960 VCSH OMTNS SW-W T00831144
KAFF - Usaf Academy/Cos, Colorado, USA
Distance from station: NW 7mi, 12km
Updated: 02/16/2019 1:10pm
Light rain, Mostly cloudy
Light rain, Mostly cloudy
 Wind from WNW
Wind: WNW 15 mph , 24 km/h, Gust: 37 mph , 59 km/h
Temperature: 37°F , 3°C
Wind Chill: 28°F , -2°C
Dew Point: 18°F , -8°C
Humidity: 45%
Barometer: 29.39 inHg , 995.3 hPa
Summary: Light rain
Clouds: Mostly cloudy
Visibility: 10 miles , 16 km
Cloud details: Few Clouds 1200 ft
Partly cloudy 9500 ft
Partly cloudy 12000 ft
Mostly cloudy 15000 ft
2019/02/16 20:10 KAFF 162010Z AUTO 30013G32KT 10SM -RA FEW012 SCT095 SCT120 BKN150 03/M08 A2939 RMK AO2 WSHFT 1958 RAB04 SLP968
 
KFLY - Co Spngs Meadow, Colorado, USA
Distance from station: ENE 8mi, 13km
Updated: 02/16/2019 12:55pm
Clear
Clear
 Wind from W
Wind: W 14 mph , 22 km/h, Gust: 23 mph , 37 km/h
Temperature: 41°F , 5°C
Wind Chill: 33°F , 1°C
Dew Point: 1°F , -17°C
Humidity: 19%
Barometer: 29.40 inHg , 995.6 hPa
Clouds: Clear
Visibility: 10 miles , 16 km
2019/02/16 19:55 KFLY 161955Z AUTO 27012G20KT 10SM CLR 05/M17 A2940 RMK AO2 T00531173
KFCS - Fort Carson, Colorado, USA
Distance from station: S 17mi, 27km
Updated: 02/16/2019 1:06pm
Clear
Clear
 Wind from W
Wind: W 29 mph , 46 km/h, Gust: 36 mph , 57 km/h
Temperature: 45°F , 7°C
Wind Chill: 35°F , 2°C
Dew Point: 5°F , -15°C
Humidity: 19%
Barometer: 29.36 inHg , 994.2 hPa
Clouds: Clear
Visibility: 10 miles , 16 km
2019/02/16 20:06 KFCS 162006Z AUTO 28025G31KT 10SM CLR 07/M15 A2936 RMK AO2 WSHFT 1955 SLP984
 
KMNH - Monument/Elbert, Colorado, USA
Distance from station: N 22mi, 35km
Updated: 02/16/2019 1:06pm
Thunderstorm, Overcast
Thunderstorm, Overcast
 Wind from WNW
Wind: WNW 29 mph , 46 km/h, Gust: 38 mph , 61 km/h
Temperature: 32°F , 0°C
Wind Chill: 18°F , -8°C
Dew Point: 21°F , -6°C
Humidity: 64%
Barometer: 29.41 inHg , 995.9 hPa
Summary: Thunderstorm
Clouds: Overcast
Visibility: 10 miles , 16 km
Cloud details: Overcast 7000 ft
2019/02/16 20:06 KMNH 162006Z AUTO 30025G33KT 10SM TS OVC070 00/M06 A2941 RMK AO2
K1V6 - Canon City, Colorado, USA
Distance from station: SSW 39mi, 62km
Updated: 02/16/2019 1:10pm
Clear
Clear
 Wind from WSW
Wind: WSW 30 mph , 48 km/h, Gust: 40 mph , 65 km/h
Temperature: 50°F , 10°C
Wind Chill: 42°F , 6°C
Dew Point: 5°F , -15°C
Humidity: 16%
Barometer: 29.40 inHg , 995.6 hPa
Clouds: Clear
Visibility: 10 miles , 16 km
2019/02/16 20:10 K1V6 162010Z AUTO 25026G35KT 10SM CLR 10/M15 A2940 RMK AO2
 
KPUB - Pueblo, Colorado, USA
Distance from station: SSE 44mi, 71km
Updated: 02/16/2019 12:53pm
Partly cloudy
Partly cloudy
 Wind from WSW
Wind: WSW 9 mph , 15 km/h, Gust: 29 mph , 46 km/h
Temperature: 48°F , 9°C
Wind Chill: 44°F , 7°C
Dew Point: 19°F , -7°C
Humidity: 32%
Barometer: 29.40 inHg , 995.6 hPa
Clouds: Partly cloudy
Visibility: 10 miles , 16 km
Cloud details: Few Clouds 5500 ft
Partly cloudy 9000 ft
2019/02/16 19:53 KPUB 161953Z 25008G25KT 10SM FEW055 SCT090 09/M07 A2940 RMK AO2 PK WND 28028/1928 SLP960 T00891067
KAPA - Denver/Arapahoe, Colorado, USA
Distance from station: N 47mi, 75km
Updated: 02/16/2019 1:06pm
Light thunderstorm, Snow, Overcast
Light thunderstorm, Snow, Overcast
 Wind from NNW
Wind: NNW 21 mph , 33 km/h
Temperature: 34°F , 1°C
Wind Chill: 22°F , -6°C
Dew Point: 25°F , -4°C
Humidity: 70%
Barometer: 29.46 inHg , 997.6 hPa
Summary: Light thunderstorm, Snow
Clouds: Overcast
Visibility: 1 1/4 miles , 2 km
Cloud details: Few Clouds 2000 ft
Partly cloudy 2800 ft
Overcast 4000 ft
2019/02/16 20:06 KAPA 162006Z 34018KT 1 1/4SM -TSSN FEW020 SCT028CB OVC040 01/M04 A2946 RMK AO2 SFC VIS 3 SNB1957 TSB03 OCNL LTGICCG SE TS SE MOV SE P0000 T00061044